sensor_id;sensor_type;location;lat;lon;timestamp;temperature;humidity
19561;DHT22;9927;47.792;10.616;2022-08-03T03:04:36;15.30;99.90
19561;DHT22;9927;47.792;10.616;2022-08-03T03:07:12;15.30;99.90
19561;DHT22;9927;47.792;10.616;2022-08-03T03:09:42;15.30;99.90
19561;DHT22;9927;47.792;10.616;2022-08-03T03:12:11;15.30;99.90
19561;DHT22;9927;47.792;10.616;2022-08-03T03:14:40;15.30;99.90
19561;DHT22;9927;47.792;10.616;2022-08-03T03:17:09;15.30;99.90
19561;DHT22;9927;47.792;10.616;2022-08-03T03:19:38;15.40;99.90
19561;DHT22;9927;47.792;10.616;2022-08-03T03:22:07;15.40;99.90
19561;DHT22;9927;47.792;10.616;2022-08-03T03:24:35;15.50;99.90
19561;DHT22;9927;47.792;10.616;2022-08-03T03:27:04;15.50;99.90
19561;DHT22;9927;47.792;10.616;2022-08-03T03:29:31;15.50;99.90
19561;DHT22;9927;47.792;10.616;2022-08-03T03:32:05;15.40;99.90
19561;DHT22;9927;47.792;10.616;2022-08-03T03:34:35;15.50;99.90
19561;DHT22;9927;47.792;10.616;2022-08-03T03:37:03;15.40;99.90
19561;DHT22;9927;47.792;10.616;2022-08-03T03:39:31;15.50;99.90
19561;DHT22;9927;47.792;10.616;2022-08-03T03:41:59;15.50;99.90
19561;DHT22;9927;47.792;10.616;2022-08-03T03:44:28;15.40;99.90
19561;DHT22;9927;47.792;10.616;2022-08-03T03:46:56;15.20;99.90
19561;DHT22;9927;47.792;10.616;2022-08-03T03:49:24;15.20;99.90
19561;DHT22;9927;47.792;10.616;2022-08-03T03:51:53;15.00;99.90
19561;DHT22;9927;47.792;10.616;2022-08-03T03:54:21;14.90;99.90
19561;DHT22;9927;47.792;10.616;2022-08-03T03:56:51;14.90;99.90
19561;DHT22;9927;47.792;10.616;2022-08-03T03:59:18;14.90;99.90
19561;DHT22;9927;47.792;10.616;2022-08-03T04:01:46;14.70;99.90
19561;DHT22;9927;47.792;10.616;2022-08-03T04:04:25;14.70;99.90
19561;DHT22;9927;47.792;10.616;2022-08-03T04:07:10;14.70;99.90
19561;DHT22;9927;47.792;10.616;2022-08-03T04:09:56;14.80;99.90
19561;DHT22;9927;47.792;10.616;2022-08-03T04:12:43;14.90;99.90
19561;DHT22;9927;47.792;10.616;2022-08-03T04:15:19;15.00;99.90
19561;DHT22;9927;47.792;10.616;2022-08-03T04:17:47;15.10;99.90
19561;DHT22;9927;47.792;10.616;2022-08-03T04:20:19;15.10;99.90
19561;DHT22;9927;47.792;10.616;2022-08-03T04:22:48;15.10;99.90
19561;DHT22;9927;47.792;10.616;2022-08-03T04:25:17;15.00;99.90
19561;DHT22;9927;47.792;10.616;2022-08-03T04:27:47;14.80;99.90
19561;DHT22;9927;47.792;10.616;2022-08-03T04:30:36;14.60;99.90
19561;DHT22;9927;47.792;10.616;2022-08-03T04:33:05;14.60;99.90
19561;DHT22;9927;47.792;10.616;2022-08-03T04:35:35;14.60;99.90
19561;DHT22;9927;47.792;10.616;2022-08-03T04:38:24;14.70;99.90
19561;DHT22;9927;47.792;10.616;2022-08-03T04:40:51;14.70;99.90
19561;DHT22;9927;47.792;10.616;2022-08-03T04:43:21;14.80;99.90
19561;DHT22;9927;47.792;10.616;2022-08-03T04:45:49;14.90;99.90
19561;DHT22;9927;47.792;10.616;2022-08-03T04:48:17;15.00;99.90
19561;DHT22;9927;47.792;10.616;2022-08-03T04:50:46;15.20;99.90
19561;DHT22;9927;47.792;10.616;2022-08-03T04:53:15;15.20;99.90
19561;DHT22;9927;47.792;10.616;2022-08-03T04:55:45;15.30;99.90
19561;DHT22;9927;47.792;10.616;2022-08-03T04:58:13;15.40;99.90
19561;DHT22;9927;47.792;10.616;2022-08-03T05:00:40;15.60;99.90
19561;DHT22;9927;47.792;10.616;2022-08-03T05:03:08;15.60;99.90
19561;DHT22;9927;47.792;10.616;2022-08-03T05:05:54;15.70;99.90
19561;DHT22;9927;47.792;10.616;2022-08-03T05:08:38;15.80;99.90
19561;DHT22;9927;47.792;10.616;2022-08-03T05:11:13;15.90;99.90
19561;DHT22;9927;47.792;10.616;2022-08-03T05:13:41;15.70;99.90
19561;DHT22;9927;47.792;10.616;2022-08-03T05:16:08;15.70;99.90
19561;DHT22;9927;47.792;10.616;2022-08-03T05:18:35;15.80;99.90
19561;DHT22;9927;47.792;10.616;2022-08-03T05:21:03;15.90;99.90
19561;DHT22;9927;47.792;10.616;2022-08-03T05:23:31;15.90;99.90
19561;DHT22;9927;47.792;10.616;2022-08-03T05:25:58;15.90;99.90
19561;DHT22;9927;47.792;10.616;2022-08-03T05:28:25;16.00;99.90
19561;DHT22;9927;47.792;10.616;2022-08-03T05:30:52;16.30;99.90
19561;DHT22;9927;47.792;10.616;2022-08-03T05:33:20;16.50;99.90
19561;DHT22;9927;47.792;10.616;2022-08-03T05:35:47;16.80;99.90
19561;DHT22;9927;47.792;10.616;2022-08-03T05:38:30;17.10;99.90
19561;DHT22;9927;47.792;10.616;2022-08-03T05:41:04;17.90;99.90
19561;DHT22;9927;47.792;10.616;2022-08-03T05:43:53;19.20;99.90
19561;DHT22;9927;47.792;10.616;2022-08-03T05:46:21;19.90;99.90
19561;DHT22;9927;47.792;10.616;2022-08-03T05:48:50;20.10;99.90
19561;DHT22;9927;47.792;10.616;2022-08-03T05:51:17;20.20;99.90
19561;DHT22;9927;47.792;10.616;2022-08-03T05:53:44;20.40;99.90
19561;DHT22;9927;47.792;10.616;2022-08-03T05:56:12;20.70;99.90
19561;DHT22;9927;47.792;10.616;2022-08-03T05:58:46;21.90;99.90
19561;DHT22;9927;47.792;10.616;2022-08-03T06:01:17;22.50;99.90
19561;DHT22;9927;47.792;10.616;2022-08-03T06:03:45;22.70;99.90
19561;DHT22;9927;47.792;10.616;2022-08-03T06:06:12;22.80;99.90
19561;DHT22;9927;47.792;10.616;2022-08-03T06:08:40;23.40;99.90
19561;DHT22;9927;47.792;10.616;2022-08-03T06:11:08;23.50;99.90
19561;DHT22;9927;47.792;10.616;2022-08-03T06:13:36;23.60;99.90
19561;DHT22;9927;47.792;10.616;2022-08-03T06:16:03;24.50;99.90
19561;DHT22;9927;47.792;10.616;2022-08-03T06:18:31;25.00;99.90
19561;DHT22;9927;47.792;10.616;2022-08-03T06:20:58;25.80;99.90
19561;DHT22;9927;47.792;10.616;2022-08-03T06:23:41;26.40;99.90
19561;DHT22;9927;47.792;10.616;2022-08-03T06:26:22;25.90;99.90
19561;DHT22;9927;47.792;10.616;2022-08-03T06:28:49;26.80;99.90
19561;DHT22;9927;47.792;10.616;2022-08-03T06:31:21;27.30;99.90
19561;DHT22;9927;47.792;10.616;2022-08-03T06:33:50;27.70;99.90
19561;DHT22;9927;47.792;10.616;2022-08-03T06:36:37;28.20;99.90
19561;DHT22;9927;47.792;10.616;2022-08-03T06:39:04;28.00;99.50
19561;DHT22;9927;47.792;10.616;2022-08-03T06:41:34;27.80;99.90
19561;DHT22;9927;47.792;10.616;2022-08-03T06:44:11;28.00;99.90
19561;DHT22;9927;47.792;10.616;2022-08-03T06:46:38;28.80;97.80
19561;DHT22;9927;47.792;10.616;2022-08-03T06:49:06;28.90;97.70
19561;DHT22;9927;47.792;10.616;2022-08-03T06:51:33;29.10;96.30
19561;DHT22;9927;47.792;10.616;2022-08-03T06:54:20;29.70;95.50
19561;DHT22;9927;47.792;10.616;2022-08-03T06:56:48;29.60;94.50
19561;DHT22;9927;47.792;10.616;2022-08-03T06:59:15;29.70;93.30
19561;DHT22;9927;47.792;10.616;2022-08-03T07:02:02;30.60;92.00
19561;DHT22;9927;47.792;10.616;2022-08-03T07:04:30;31.20;90.50
19561;DHT22;9927;47.792;10.616;2022-08-03T07:06:57;31.30;87.40
19561;DHT22;9927;47.792;10.616;2022-08-03T07:09:24;31.50;83.50
19561;DHT22;9927;47.792;10.616;2022-08-03T07:11:53;31.90;83.20
19561;DHT22;9927;47.792;10.616;2022-08-03T07:14:21;31.90;79.00
19561;DHT22;9927;47.792;10.616;2022-08-03T07:16:48;30.70;85.70
19561;DHT22;9927;47.792;10.616;2022-08-03T07:19:15;31.70;83.50
19561;DHT22;9927;47.792;10.616;2022-08-03T07:21:43;32.50;79.40
19561;DHT22;9927;47.792;10.616;2022-08-03T07:24:11;33.00;76.80
19561;DHT22;9927;47.792;10.616;2022-08-03T07:26:38;33.00;76.50
19561;DHT22;9927;47.792;10.616;2022-08-03T07:29:05;32.30;75.50
19561;DHT22;9927;47.792;10.616;2022-08-03T07:31:41;32.50;75.20
19561;DHT22;9927;47.792;10.616;2022-08-03T07:34:08;33.10;72.40
19561;DHT22;9927;47.792;10.616;2022-08-03T07:36:36;33.20;76.20
19561;DHT22;9927;47.792;10.616;2022-08-03T07:39:03;33.20;74.70
19561;DHT22;9927;47.792;10.616;2022-08-03T07:41:44;33.30;73.70
19561;DHT22;9927;47.792;10.616;2022-08-03T07:44:12;33.00;72.90
19561;DHT22;9927;47.792;10.616;2022-08-03T07:46:39;33.20;73.50
19561;DHT22;9927;47.792;10.616;2022-08-03T07:49:06;33.40;68.90
19561;DHT22;9927;47.792;10.616;2022-08-03T07:51:34;33.40;70.20
19561;DHT22;9927;47.792;10.616;2022-08-03T07:54:01;33.70;67.40
19561;DHT22;9927;47.792;10.616;2022-08-03T07:56:28;33.80;69.60
19561;DHT22;9927;47.792;10.616;2022-08-03T07:58:56;34.40;67.50
19561;DHT22;9927;47.792;10.616;2022-08-03T08:01:24;34.50;66.40
19561;DHT22;9927;47.792;10.616;2022-08-03T08:03:51;34.90;65.60
19561;DHT22;9927;47.792;10.616;2022-08-03T08:06:20;33.90;67.50
19561;DHT22;9927;47.792;10.616;2022-08-03T08:08:47;33.00;71.50
19561;DHT22;9927;47.792;10.616;2022-08-03T08:11:14;33.90;69.10
19561;DHT22;9927;47.792;10.616;2022-08-03T08:13:42;34.60;66.90
19561;DHT22;9927;47.792;10.616;2022-08-03T08:16:09;34.30;67.50
19561;DHT22;9927;47.792;10.616;2022-08-03T08:18:36;34.10;70.40
19561;DHT22;9927;47.792;10.616;2022-08-03T08:21:03;34.50;68.40
19561;DHT22;9927;47.792;10.616;2022-08-03T08:23:31;35.00;66.30
19561;DHT22;9927;47.792;10.616;2022-08-03T08:26:09;35.00;66.60
19561;DHT22;9927;47.792;10.616;2022-08-03T08:28:36;35.30;65.20
19561;DHT22;9927;47.792;10.616;2022-08-03T08:31:04;35.10;64.80
19561;DHT22;9927;47.792;10.616;2022-08-03T08:33:31;35.30;64.00
19561;DHT22;9927;47.792;10.616;2022-08-03T08:36:20;35.40;64.80
19561;DHT22;9927;47.792;10.616;2022-08-03T08:38:47;35.40;68.00
19561;DHT22;9927;47.792;10.616;2022-08-03T08:41:16;35.10;65.00
19561;DHT22;9927;47.792;10.616;2022-08-03T08:43:43;35.20;67.10
19561;DHT22;9927;47.792;10.616;2022-08-03T08:46:12;35.50;63.90
19561;DHT22;9927;47.792;10.616;2022-08-03T08:48:51;35.30;64.30
19561;DHT22;9927;47.792;10.616;2022-08-03T08:51:21;34.90;64.80
19561;DHT22;9927;47.792;10.616;2022-08-03T08:53:52;34.50;65.60
19561;DHT22;9927;47.792;10.616;2022-08-03T08:56:24;34.30;62.90
19561;DHT22;9927;47.792;10.616;2022-08-03T08:58:59;34.70;66.90
19561;DHT22;9927;47.792;10.616;2022-08-03T09:01:27;34.90;65.60
19561;DHT22;9927;47.792;10.616;2022-08-03T09:03:54;33.80;65.80
19561;DHT22;9927;47.792;10.616;2022-08-03T09:06:22;33.80;64.70
19561;DHT22;9927;47.792;10.616;2022-08-03T09:08:50;34.20;61.60
19561;DHT22;9927;47.792;10.616;2022-08-03T09:11:21;34.20;60.20
19561;DHT22;9927;47.792;10.616;2022-08-03T09:14:09;34.20;62.50
19561;DHT22;9927;47.792;10.616;2022-08-03T09:16:59;33.20;62.90
19561;DHT22;9927;47.792;10.616;2022-08-03T09:19:32;32.40;64.40
19561;DHT22;9927;47.792;10.616;2022-08-03T09:22:13;31.80;64.70
19561;DHT22;9927;47.792;10.616;2022-08-03T09:24:59;31.60;64.30
19561;DHT22;9927;47.792;10.616;2022-08-03T09:27:46;31.60;65.00
19561;DHT22;9927;47.792;10.616;2022-08-03T09:30:15;31.50;65.60
19561;DHT22;9927;47.792;10.616;2022-08-03T09:33:02;31.80;62.80
19561;DHT22;9927;47.792;10.616;2022-08-03T09:35:29;31.40;66.70
19561;DHT22;9927;47.792;10.616;2022-08-03T09:38:22;31.10;64.80
19561;DHT22;9927;47.792;10.616;2022-08-03T09:40:53;30.90;65.50
19561;DHT22;9927;47.792;10.616;2022-08-03T09:43:25;31.10;66.20
19561;DHT22;9927;47.792;10.616;2022-08-03T09:46:03;31.10;68.60
19561;DHT22;9927;47.792;10.616;2022-08-03T09:48:31;30.80;69.70
19561;DHT22;9927;47.792;10.616;2022-08-03T09:51:02;30.90;71.90
19561;DHT22;9927;47.792;10.616;2022-08-03T09:53:50;31.10;73.30
19561;DHT22;9927;47.792;10.616;2022-08-03T09:56:43;31.10;68.80
19561;DHT22;9927;47.792;10.616;2022-08-03T09:59:12;30.80;66.60
19561;DHT22;9927;47.792;10.616;2022-08-03T10:01:40;30.40;67.90
19561;DHT22;9927;47.792;10.616;2022-08-03T10:04:15;29.80;67.00
19561;DHT22;9927;47.792;10.616;2022-08-03T10:07:01;29.60;68.50
19561;DHT22;9927;47.792;10.616;2022-08-03T10:09:29;29.30;73.40
19561;DHT22;9927;47.792;10.616;2022-08-03T10:11:57;29.40;72.60
19561;DHT22;9927;47.792;10.616;2022-08-03T10:14:32;29.40;73.10
19561;DHT22;9927;47.792;10.616;2022-08-03T10:17:02;29.30;71.70
19561;DHT22;9927;47.792;10.616;2022-08-03T10:19:29;29.10;72.40
19561;DHT22;9927;47.792;10.616;2022-08-03T10:22:02;29.10;74.80
19561;DHT22;9927;47.792;10.616;2022-08-03T10:24:33;29.10;74.30
19561;DHT22;9927;47.792;10.616;2022-08-03T10:27:06;29.20;72.30
19561;DHT22;9927;47.792;10.616;2022-08-03T10:29:37;29.10;70.20
19561;DHT22;9927;47.792;10.616;2022-08-03T10:32:33;29.10;68.30
19561;DHT22;9927;47.792;10.616;2022-08-03T10:35:05;28.80;64.20
19561;DHT22;9927;47.792;10.616;2022-08-03T10:38:02;28.70;68.80
19561;DHT22;9927;47.792;10.616;2022-08-03T10:40:32;28.60;65.50
19561;DHT22;9927;47.792;10.616;2022-08-03T10:43:36;28.60;66.90
19561;DHT22;9927;47.792;10.616;2022-08-03T10:46:08;28.60;69.00
19561;DHT22;9927;47.792;10.616;2022-08-03T10:48:35;28.80;67.70
19561;DHT22;9927;47.792;10.616;2022-08-03T10:51:03;28.80;67.40
19561;DHT22;9927;47.792;10.616;2022-08-03T10:53:38;28.90;65.10
19561;DHT22;9927;47.792;10.616;2022-08-03T10:59:19;29.00;62.40
19561;DHT22;9927;47.792;10.616;2022-08-03T11:02:06;29.10;61.60
19561;DHT22;9927;47.792;10.616;2022-08-03T11:04:35;29.10;59.30
19561;DHT22;9927;47.792;10.616;2022-08-03T11:09:45;29.00;59.90
19561;DHT22;9927;47.792;10.616;2022-08-03T11:12:35;29.10;59.30
19561;DHT22;9927;47.792;10.616;2022-08-03T11:15:05;29.20;62.00
19561;DHT22;9927;47.792;10.616;2022-08-03T11:17:34;29.40;63.10
19561;DHT22;9927;47.792;10.616;2022-08-03T11:20:53;29.60;65.20
19561;DHT22;9927;47.792;10.616;2022-08-03T11:23:42;29.60;67.60
19561;DHT22;9927;47.792;10.616;2022-08-03T11:26:29;29.70;60.50
19561;DHT22;9927;47.792;10.616;2022-08-03T11:29:38;29.70;67.60
19561;DHT22;9927;47.792;10.616;2022-08-03T11:32:04;29.70;72.00
19561;DHT22;9927;47.792;10.616;2022-08-03T11:34:31;29.50;67.00
19561;DHT22;9927;47.792;10.616;2022-08-03T11:37:21;29.40;64.90
19561;DHT22;9927;47.792;10.616;2022-08-03T11:39:52;29.40;63.50
19561;DHT22;9927;47.792;10.616;2022-08-03T11:44:55;29.50;67.40
19561;DHT22;9927;47.792;10.616;2022-08-03T11:47:25;29.50;69.10
19561;DHT22;9927;47.792;10.616;2022-08-03T11:49:55;29.20;67.60
19561;DHT22;9927;47.792;10.616;2022-08-03T11:52:25;29.30;67.10
19561;DHT22;9927;47.792;10.616;2022-08-03T11:54:55;29.50;66.20
19561;DHT22;9927;47.792;10.616;2022-08-03T11:57:34;29.40;65.30
19561;DHT22;9927;47.792;10.616;2022-08-03T12:00:25;29.40;61.30
19561;DHT22;9927;47.792;10.616;2022-08-03T12:02:57;29.50;64.30
19561;DHT22;9927;47.792;10.616;2022-08-03T12:05:36;29.60;68.80
19561;DHT22;9927;47.792;10.616;2022-08-03T12:08:05;29.60;66.40
19561;DHT22;9927;47.792;10.616;2022-08-03T12:10:34;29.70;65.70
19561;DHT22;9927;47.792;10.616;2022-08-03T12:13:02;29.70;66.40
19561;DHT22;9927;47.792;10.616;2022-08-03T12:15:53;29.90;72.40
19561;DHT22;9927;47.792;10.616;2022-08-03T12:18:22;29.90;67.90
19561;DHT22;9927;47.792;10.616;2022-08-03T12:20:51;29.80;66.10
19561;DHT22;9927;47.792;10.616;2022-08-03T12:23:19;29.60;61.30
19561;DHT22;9927;47.792;10.616;2022-08-03T12:25:46;29.50;64.90
19561;DHT22;9927;47.792;10.616;2022-08-03T12:28:18;29.70;68.60
19561;DHT22;9927;47.792;10.616;2022-08-03T12:31:07;29.90;70.00
19561;DHT22;9927;47.792;10.616;2022-08-03T12:34:14;30.00;71.10
19561;DHT22;9927;47.792;10.616;2022-08-03T12:36:53;30.10;63.30
19561;DHT22;9927;47.792;10.616;2022-08-03T12:39:22;30.10;63.70
19561;DHT22;9927;47.792;10.616;2022-08-03T12:41:52;30.10;65.50
19561;DHT22;9927;47.792;10.616;2022-08-03T12:44:29;30.10;66.10
19561;DHT22;9927;47.792;10.616;2022-08-03T12:46:57;30.30;67.10
19561;DHT22;9927;47.792;10.616;2022-08-03T12:49:25;30.50;66.10
19561;DHT22;9927;47.792;10.616;2022-08-03T12:51:57;30.40;66.70
19561;DHT22;9927;47.792;10.616;2022-08-03T12:54:32;30.40;63.10
19561;DHT22;9927;47.792;10.616;2022-08-03T12:57:09;30.30;62.00
19561;DHT22;9927;47.792;10.616;2022-08-03T12:59:43;30.30;64.70
19561;DHT22;9927;47.792;10.616;2022-08-03T13:02:21;30.10;62.30
19561;DHT22;9927;47.792;10.616;2022-08-03T13:04:51;30.20;67.30
19561;DHT22;9927;47.792;10.616;2022-08-03T13:07:19;30.20;64.70
19561;DHT22;9927;47.792;10.616;2022-08-03T13:09:52;30.40;71.20
19561;DHT22;9927;47.792;10.616;2022-08-03T13:12:22;30.50;64.10
19561;DHT22;9927;47.792;10.616;2022-08-03T13:14:54;30.70;60.70
19561;DHT22;9927;47.792;10.616;2022-08-03T13:17:22;30.50;66.00
19561;DHT22;9927;47.792;10.616;2022-08-03T13:19:49;30.50;64.80
19561;DHT22;9927;47.792;10.616;2022-08-03T13:22:25;30.50;64.70
19561;DHT22;9927;47.792;10.616;2022-08-03T13:24:54;30.50;64.10
19561;DHT22;9927;47.792;10.616;2022-08-03T13:27:24;30.40;62.80
19561;DHT22;9927;47.792;10.616;2022-08-03T13:30:11;30.40;67.20
19561;DHT22;9927;47.792;10.616;2022-08-03T13:32:38;30.50;62.20
19561;DHT22;9927;47.792;10.616;2022-08-03T13:35:07;30.40;64.20
19561;DHT22;9927;47.792;10.616;2022-08-03T13:37:35;30.40;65.80
19561;DHT22;9927;47.792;10.616;2022-08-03T13:40:04;30.60;64.40
19561;DHT22;9927;47.792;10.616;2022-08-03T13:42:33;30.70;64.90
19561;DHT22;9927;47.792;10.616;2022-08-03T13:45:01;30.80;66.10
19561;DHT22;9927;47.792;10.616;2022-08-03T13:47:29;30.80;63.60
19561;DHT22;9927;47.792;10.616;2022-08-03T13:49:57;30.70;60.90
19561;DHT22;9927;47.792;10.616;2022-08-03T13:52:32;30.70;62.30
19561;DHT22;9927;47.792;10.616;2022-08-03T13:55:04;30.60;62.50
19561;DHT22;9927;47.792;10.616;2022-08-03T13:57:32;30.60;62.00
19561;DHT22;9927;47.792;10.616;2022-08-03T14:00:20;30.80;60.10
19561;DHT22;9927;47.792;10.616;2022-08-03T14:02:58;30.80;60.90
19561;DHT22;9927;47.792;10.616;2022-08-03T14:05:35;30.90;61.60
19561;DHT22;9927;47.792;10.616;2022-08-03T14:08:05;30.70;60.10
19561;DHT22;9927;47.792;10.616;2022-08-03T14:10:35;30.80;61.30
19561;DHT22;9927;47.792;10.616;2022-08-03T14:13:03;30.80;62.60
19561;DHT22;9927;47.792;10.616;2022-08-03T14:15:31;30.70;61.20
19561;DHT22;9927;47.792;10.616;2022-08-03T14:18:08;30.60;60.80
19561;DHT22;9927;47.792;10.616;2022-08-03T14:20:42;30.70;63.50
19561;DHT22;9927;47.792;10.616;2022-08-03T14:23:16;30.60;64.30
19561;DHT22;9927;47.792;10.616;2022-08-03T14:25:43;30.70;65.10
19561;DHT22;9927;47.792;10.616;2022-08-03T14:28:20;30.70;62.90
19561;DHT22;9927;47.792;10.616;2022-08-03T14:30:53;30.80;61.70
19561;DHT22;9927;47.792;10.616;2022-08-03T14:33:22;31.00;61.50
19561;DHT22;9927;47.792;10.616;2022-08-03T14:35:50;31.00;61.00
19561;DHT22;9927;47.792;10.616;2022-08-03T14:38:18;31.10;61.10
19561;DHT22;9927;47.792;10.616;2022-08-03T14:40:46;31.00;65.10
19561;DHT22;9927;47.792;10.616;2022-08-03T14:43:15;31.00;65.80
19561;DHT22;9927;47.792;10.616;2022-08-03T14:45:48;31.10;65.00
19561;DHT22;9927;47.792;10.616;2022-08-03T14:48:22;31.20;66.50
19561;DHT22;9927;47.792;10.616;2022-08-03T14:51:10;31.30;64.20
19561;DHT22;9927;47.792;10.616;2022-08-03T14:53:37;31.50;63.30
19561;DHT22;9927;47.792;10.616;2022-08-03T14:56:05;31.70;61.10
19561;DHT22;9927;47.792;10.616;2022-08-03T14:58:36;31.70;60.40
19561;DHT22;9927;47.792;10.616;2022-08-03T15:01:04;31.70;61.80
19561;DHT22;9927;47.792;10.616;2022-08-03T15:03:53;31.70;60.90
19561;DHT22;9927;47.792;10.616;2022-08-03T15:06:20;31.80;58.90
19561;DHT22;9927;47.792;10.616;2022-08-03T15:08:47;31.80;57.70
19561;DHT22;9927;47.792;10.616;2022-08-03T15:11:35;31.90;58.70
19561;DHT22;9927;47.792;10.616;2022-08-03T15:14:03;31.90;59.30
19561;DHT22;9927;47.792;10.616;2022-08-03T15:16:35;31.90;57.90
19561;DHT22;9927;47.792;10.616;2022-08-03T15:19:03;31.80;60.40
19561;DHT22;9927;47.792;10.616;2022-08-03T15:21:50;31.80;61.80
19561;DHT22;9927;47.792;10.616;2022-08-03T15:24:18;31.50;59.10
19561;DHT22;9927;47.792;10.616;2022-08-03T15:26:45;31.40;58.00
19561;DHT22;9927;47.792;10.616;2022-08-03T15:29:12;31.40;58.20
19561;DHT22;9927;47.792;10.616;2022-08-03T15:31:59;31.50;57.50
19561;DHT22;9927;47.792;10.616;2022-08-03T15:34:29;31.70;60.10
19561;DHT22;9927;47.792;10.616;2022-08-03T15:36:56;31.90;57.50
19561;DHT22;9927;47.792;10.616;2022-08-03T15:39:23;31.90;61.40
19561;DHT22;9927;47.792;10.616;2022-08-03T15:41:51;32.00;61.00
19561;DHT22;9927;47.792;10.616;2022-08-03T15:44:18;31.90;61.20
19561;DHT22;9927;47.792;10.616;2022-08-03T15:46:46;32.00;61.10
19561;DHT22;9927;47.792;10.616;2022-08-03T15:49:13;31.90;62.90
19561;DHT22;9927;47.792;10.616;2022-08-03T15:51:41;31.70;61.60
19561;DHT22;9927;47.792;10.616;2022-08-03T15:54:08;31.60;59.20
19561;DHT22;9927;47.792;10.616;2022-08-03T15:56:35;31.40;61.80
19561;DHT22;9927;47.792;10.616;2022-08-03T15:59:02;31.40;64.10
19561;DHT22;9927;47.792;10.616;2022-08-03T16:01:40;31.50;63.20
19561;DHT22;9927;47.792;10.616;2022-08-03T16:04:07;31.40;62.30
19561;DHT22;9927;47.792;10.616;2022-08-03T16:06:35;31.40;62.00
19561;DHT22;9927;47.792;10.616;2022-08-03T16:09:04;31.50;65.00
19561;DHT22;9927;47.792;10.616;2022-08-03T16:11:52;31.50;65.60
19561;DHT22;9927;47.792;10.616;2022-08-03T16:14:19;31.40;63.90
19561;DHT22;9927;47.792;10.616;2022-08-03T16:17:04;31.20;63.90
19561;DHT22;9927;47.792;10.616;2022-08-03T16:19:31;30.90;64.50
19561;DHT22;9927;47.792;10.616;2022-08-03T16:21:59;30.80;67.70
19561;DHT22;9927;47.792;10.616;2022-08-03T16:24:26;30.70;67.70
19561;DHT22;9927;47.792;10.616;2022-08-03T16:26:55;30.50;66.70
19561;DHT22;9927;47.792;10.616;2022-08-03T16:29:22;30.40;68.20
19561;DHT22;9927;47.792;10.616;2022-08-03T16:31:50;30.20;67.90
19561;DHT22;9927;47.792;10.616;2022-08-03T16:34:19;30.10;66.20
19561;DHT22;9927;47.792;10.616;2022-08-03T16:36:46;30.00;67.70
19561;DHT22;9927;47.792;10.616;2022-08-03T16:39:14;30.00;67.90
19561;DHT22;9927;47.792;10.616;2022-08-03T16:41:41;30.00;68.10
19561;DHT22;9927;47.792;10.616;2022-08-03T16:44:30;29.90;65.90
19561;DHT22;9927;47.792;10.616;2022-08-03T16:46:58;29.80;65.10
19561;DHT22;9927;47.792;10.616;2022-08-03T16:49:25;29.70;66.30
19561;DHT22;9927;47.792;10.616;2022-08-03T16:52:12;29.70;66.50
19561;DHT22;9927;47.792;10.616;2022-08-03T16:54:43;29.60;65.10
19561;DHT22;9927;47.792;10.616;2022-08-03T16:57:22;29.60;66.00
19561;DHT22;9927;47.792;10.616;2022-08-03T17:00:10;29.60;66.20
19561;DHT22;9927;47.792;10.616;2022-08-03T17:03:00;29.60;67.20
19561;DHT22;9927;47.792;10.616;2022-08-03T17:05:38;29.50;67.20
19561;DHT22;9927;47.792;10.616;2022-08-03T17:08:13;29.40;64.60
19561;DHT22;9927;47.792;10.616;2022-08-03T17:10:42;29.40;65.50
19561;DHT22;9927;47.792;10.616;2022-08-03T17:13:12;29.40;66.20
19561;DHT22;9927;47.792;10.616;2022-08-03T17:15:49;29.40;64.70
19561;DHT22;9927;47.792;10.616;2022-08-03T17:18:34;29.30;64.00
19561;DHT22;9927;47.792;10.616;2022-08-03T17:21:03;29.20;62.60
19561;DHT22;9927;47.792;10.616;2022-08-03T17:23:52;29.20;63.00
19561;DHT22;9927;47.792;10.616;2022-08-03T17:26:21;29.20;61.20
19561;DHT22;9927;47.792;10.616;2022-08-03T17:29:02;29.20;63.20
19561;DHT22;9927;47.792;10.616;2022-08-03T17:31:40;29.20;64.10
19561;DHT22;9927;47.792;10.616;2022-08-03T17:34:16;29.00;68.10
19561;DHT22;9927;47.792;10.616;2022-08-03T17:36:45;28.90;63.80
19561;DHT22;9927;47.792;10.616;2022-08-03T17:39:30;28.90;64.20
19561;DHT22;9927;47.792;10.616;2022-08-03T17:42:18;28.80;63.60
19561;DHT22;9927;47.792;10.616;2022-08-03T17:44:59;28.70;65.20
19561;DHT22;9927;47.792;10.616;2022-08-03T17:47:32;28.70;65.70
19561;DHT22;9927;47.792;10.616;2022-08-03T17:50:11;28.60;65.10
19561;DHT22;9927;47.792;10.616;2022-08-03T17:53:01;28.50;64.90
19561;DHT22;9927;47.792;10.616;2022-08-03T17:55:43;28.50;64.10
19561;DHT22;9927;47.792;10.616;2022-08-03T18:00:59;28.40;64.70
19561;DHT22;9927;47.792;10.616;2022-08-03T18:04:06;28.30;65.10
19561;DHT22;9927;47.792;10.616;2022-08-03T18:06:38;28.20;66.00
19561;DHT22;9927;47.792;10.616;2022-08-03T18:09:26;28.20;66.30
19561;DHT22;9927;47.792;10.616;2022-08-03T18:12:27;28.00;67.50
19561;DHT22;9927;47.792;10.616;2022-08-03T18:14:59;27.90;68.70
19561;DHT22;9927;47.792;10.616;2022-08-03T18:17:36;27.70;71.20
19561;DHT22;9927;47.792;10.616;2022-08-03T18:20:24;27.50;73.30
19561;DHT22;9927;47.792;10.616;2022-08-03T18:23:05;27.40;73.60
19561;DHT22;9927;47.792;10.616;2022-08-03T18:25:33;27.20;73.70
19561;DHT22;9927;47.792;10.616;2022-08-03T18:28:15;27.00;74.00
19561;DHT22;9927;47.792;10.616;2022-08-03T18:30:45;26.80;76.70
19561;DHT22;9927;47.792;10.616;2022-08-03T18:33:24;26.80;76.00
19561;DHT22;9927;47.792;10.616;2022-08-03T18:36:14;26.60;77.80
19561;DHT22;9927;47.792;10.616;2022-08-03T18:38:59;26.50;78.60
19561;DHT22;9927;47.792;10.616;2022-08-03T18:41:30;26.30;79.50
19561;DHT22;9927;47.792;10.616;2022-08-03T18:44:02;26.20;81.60
19561;DHT22;9927;47.792;10.616;2022-08-03T18:55:08;25.60;83.70
19561;DHT22;9927;47.792;10.616;2022-08-03T18:58:14;25.60;84.30
19561;DHT22;9927;47.792;10.616;2022-08-03T19:04:24;25.30;86.40
19561;DHT22;9927;47.792;10.616;2022-08-03T19:07:00;25.20;89.00
19561;DHT22;9927;47.792;10.616;2022-08-03T19:12:05;24.80;90.40
19561;DHT22;9927;47.792;10.616;2022-08-03T19:14:59;24.70;91.00
19561;DHT22;9927;47.792;10.616;2022-08-03T19:17:32;24.40;91.40
19561;DHT22;9927;47.792;10.616;2022-08-03T19:20:03;24.20;91.70
19561;DHT22;9927;47.792;10.616;2022-08-03T19:22:32;24.10;91.90
19561;DHT22;9927;47.792;10.616;2022-08-03T19:25:00;24.10;92.00
19561;DHT22;9927;47.792;10.616;2022-08-03T19:27:31;24.00;92.10
19561;DHT22;9927;47.792;10.616;2022-08-03T19:30:02;23.90;92.00
19561;DHT22;9927;47.792;10.616;2022-08-03T19:32:48;23.90;91.70
19561;DHT22;9927;47.792;10.616;2022-08-03T19:35:16;23.90;91.90
19561;DHT22;9927;47.792;10.616;2022-08-03T19:37:45;23.80;92.00